Terminal Aerodrome Forecast
Issued by NWS

Home | Current Version | Previous Version | Text Only | Print | Product List | Glossary On
Versions: 1 2 3 4 5 6 7 8 9 10 11 12 13 14 15 16 17 18 19 20 21 22
000
FTUS46 KPDT 140536
TAFRDM
TAF
KRDM 140536Z 1406/1506 VRB06KT 3SM BR OVC002
      TEMPO 1406/1410 1/4SM FZFG OVC001
     FM141000 VRB02KT 1/2SM FZFG VV002
      TEMPO 1410/1414 1/4SM FZFG VV001
     FM141400 VRB06KT 1SM BR OVC004
     FM142000 VRB06KT P6SM SCT005 BKN020=

USA.gov is the U.S. government's official web portal to all federal, state and local government web resources and services.